Terminal Aerodrome Forecast
Issued by NWS

Home | Current Version | Previous Version | Text Only | Print | Product List | Glossary On
Versions: 1 2 3 4 5 6 7 8 9 10 11 12 13 14 15 16 17 18 19 20 21 22 23 24
810
FTUS44 KFWD 160530
TAFFTW
TAF
KFTW 160530Z 1606/1706 19006KT P6SM BKN250
     FM161600 18015KT P6SM BKN200
     FM162100 17016KT P6SM VCSH BKN060
     FM170000 17010KT 6SM -SHRA BKN030
     FM170300 17008KT 4SM SHRA BR OVC010=

USA.gov is the U.S. government's official web portal to all federal, state and local government web resources and services.